Time;durP1;ratioP1;P1;durP2;ratioP2;P2;SDS_P1;SDS_P2;PMS_P1;PMS_P2;Temp;Humidity;BMP_temperature;BMP_pressure;BME280_temperature;BME280_humidity;BME280_pressure;Samples;Min_cycle;Max_cycle;Signal;HPM_P1;HPM_P2
2021/06/13 00:01:53;;;;;;;;;;;;;;;14.76;100.00;100138.16;5116193;28;20282;-71
2021/06/13 00:04:19;;;;;;;;;;;;;;;14.90;100.00;100138.56;5115575;28;19916;-71
2021/06/13 00:06:44;;;;;;;;;;;;;;;14.95;100.00;100139.78;5115535;28;19916;-71
2021/06/13 00:09:09;;;;;;;;;;;;;;;14.97;100.00;100143.06;5115788;28;20362;-71
2021/06/13 00:11:35;;;;;;;;;;;;;;;15.00;100.00;100139.28;5115411;28;19911;-71
2021/06/13 00:14:01;;;;;;;;;;;;;;;14.94;100.00;100143.38;5115598;28;19918;-71
2021/06/13 00:16:26;;;;;;;;;;;;;;;15.06;100.00;100147.41;5115567;28;20286;-71
2021/06/13 00:18:52;;;;;;;;;;;;;;;14.99;100.00;100148.19;5115404;28;19919;-71
2021/06/13 00:21:18;;;;;;;;;;;;;;;15.01;100.00;100146.22;5115336;28;19912;-71
2021/06/13 00:23:43;;;;;;;;;;;;;;;14.97;100.00;100139.59;5115864;28;20294;-71
2021/06/13 00:29:11;;;;;;;;;;;;;;;14.96;100.00;100143.25;5115187;28;19927;-71
2021/06/13 00:31:37;;;;;;;;;;;;;;;14.85;100.00;100137.25;5115450;28;19911;-71
2021/06/13 00:34:03;;;;;;;;;;;;;;;14.71;100.00;100127.25;5115217;28;19917;-71
2021/06/13 00:36:28;;;;;;;;;;;;;;;14.66;100.00;100126.91;5096351;28;20412;-71
2021/06/13 00:38:53;;;;;;;;;;;;;;;14.72;100.00;100128.91;5114710;28;19919;-71
2021/06/13 00:41:19;;;;;;;;;;;;;;;14.74;100.00;100123.47;5115141;28;20371;-71
2021/06/13 00:43:45;;;;;;;;;;;;;;;14.82;100.00;100127.00;5114911;28;19983;-71
2021/06/13 00:46:29;;;;;;;;;;;;;;;14.91;100.00;100127.03;5096587;28;19911;-71
2021/06/13 00:48:54;;;;;;;;;;;;;;;14.88;100.00;100126.38;5115156;28;20408;-71
2021/06/13 00:51:19;;;;;;;;;;;;;;;14.93;100.00;100122.44;5114952;28;20002;-71
2021/06/13 00:53:44;;;;;;;;;;;;;;;14.96;100.00;100128.22;5114839;28;19912;-71
2021/06/13 00:56:10;;;;;;;;;;;;;;;15.01;100.00;100118.00;5096601;28;19994;-71
2021/06/13 00:58:35;;;;;;;;;;;;;;;14.84;100.00;100122.38;5114634;28;19911;-72
2021/06/13 01:01:00;;;;;;;;;;;;;;;14.71;100.00;100116.69;5114481;28;19912;-71
2021/06/13 01:03:46;;;;;;;;;;;;;;;14.55;100.00;100109.53;5114441;28;19919;-71
2021/06/13 01:06:13;;;;;;;;;;;;;;;14.41;100.00;100110.88;5096463;28;19912;-71
2021/06/13 01:11:35;;;;;;;;;;;;;;;14.58;100.00;100111.03;5114176;28;19922;-72
2021/06/13 01:14:19;;;;;;;;;;;;;;;14.58;100.00;100097.84;5096020;28;19919;-71
2021/06/13 01:16:56;;;;;;;;;;;;;;;14.51;100.00;100097.66;5114256;28;20019;-71
2021/06/13 01:19:21;;;;;;;;;;;;;;;14.56;100.00;100097.16;5114090;28;20004;-71
2021/06/13 01:21:59;;;;;;;;;;;;;;;14.62;100.00;100096.56;5113812;28;19959;-71
2021/06/13 01:24:30;;;;;;;;;;;;;;;14.63;100.00;100098.19;5114313;28;20336;-71
2021/06/13 01:26:55;;;;;;;;;;;;;;;14.62;100.00;100097.38;5114185;28;19920;-71
2021/06/13 01:29:27;;;;;;;;;;;;;;;14.55;100.00;100098.16;5113954;28;19941;-71
2021/06/13 01:31:56;;;;;;;;;;;;;;;14.51;100.00;100092.38;5114075;28;19912;-71
2021/06/13 01:34:35;;;;;;;;;;;;;;;14.47;100.00;100084.88;5113228;28;20318;-71
2021/06/13 01:37:02;;;;;;;;;;;;;;;14.54;100.00;100096.47;5113677;28;20367;-71
2021/06/13 01:39:28;;;;;;;;;;;;;;;14.60;100.00;100098.50;5114345;28;19959;-71
2021/06/13 01:41:53;;;;;;;;;;;;;;;14.70;100.00;100093.94;5095577;28;19923;-71
2021/06/13 01:44:20;;;;;;;;;;;;;;;14.74;100.00;100097.91;5113688;28;19915;-71
2021/06/13 01:46:47;;;;;;;;;;;;;;;14.79;100.00;100098.28;5113705;28;20026;-71
2021/06/13 01:49:13;;;;;;;;;;;;;;;14.81;100.00;100098.94;5113567;28;19919;-72
2021/06/13 01:51:39;;;;;;;;;;;;;;;14.52;100.00;100095.81;5114013;28;19912;-71
2021/06/13 01:54:05;;;;;;;;;;;;;;;14.51;100.00;100102.91;5113427;28;19918;-71
2021/06/13 01:56:32;;;;;;;;;;;;;;;14.47;100.00;100106.78;5113675;28;19955;-71
2021/06/13 01:58:58;;;;;;;;;;;;;;;14.50;100.00;100103.88;5113521;28;20450;-71
2021/06/13 02:01:25;;;;;;;;;;;;;;;14.46;100.00;100099.03;5113596;28;20006;-71
2021/06/13 02:03:53;;;;;;;;;;;;;;;14.48;100.00;100097.06;5113421;28;19911;-71
2021/06/13 02:06:22;;;;;;;;;;;;;;;14.47;100.00;100100.69;5113678;28;19912;-71
2021/06/13 02:08:48;;;;;;;;;;;;;;;14.40;100.00;100100.47;5095162;28;19912;-71
2021/06/13 02:11:41;;;;;;;;;;;;;;;14.47;100.00;100105.97;5113405;28;19911;-71
2021/06/13 02:14:06;;;;;;;;;;;;;;;14.47;100.00;100098.06;5113056;28;19918;-71
2021/06/13 02:16:32;;;;;;;;;;;;;;;14.54;100.00;100094.66;5113368;28;19912;-71
2021/06/13 02:18:59;;;;;;;;;;;;;;;14.59;100.00;100100.31;5113018;28;20397;-71
2021/06/13 02:21:26;;;;;;;;;;;;;;;14.64;100.00;100094.56;5113581;28;20371;-71
2021/06/13 02:23:51;;;;;;;;;;;;;;;14.68;100.00;100088.03;5113165;28;19968;-71
2021/06/13 02:26:18;;;;;;;;;;;;;;;14.55;100.00;100090.25;5112358;28;19915;-71
2021/06/13 02:28:47;;;;;;;;;;;;;;;14.57;100.00;100099.63;5113531;28;20458;-71
2021/06/13 02:31:14;;;;;;;;;;;;;;;14.61;100.00;100097.50;5113178;28;19912;-71
2021/06/13 02:33:41;;;;;;;;;;;;;;;14.49;100.00;100099.56;5113017;28;20431;-71
2021/06/13 02:36:07;;;;;;;;;;;;;;;14.41;100.00;100092.44;5113013;28;20006;-71
2021/06/13 02:38:32;;;;;;;;;;;;;;;14.38;100.00;100094.56;5112563;28;19958;-71
2021/06/13 02:40:58;;;;;;;;;;;;;;;14.37;100.00;100092.88;5113095;28;19911;-71
2021/06/13 02:43:23;;;;;;;;;;;;;;;14.38;100.00;100092.75;5113415;28;19994;-71
2021/06/13 02:45:49;;;;;;;;;;;;;;;14.31;100.00;100096.13;5112840;28;20363;-71
2021/06/13 02:48:15;;;;;;;;;;;;;;;14.30;100.00;100099.75;5115827;28;19911;-71
2021/06/13 02:50:41;;;;;;;;;;;;;;;14.33;100.00;100097.63;5098554;28;20306;-71
2021/06/13 02:53:15;;;;;;;;;;;;;;;14.32;100.00;100082.81;5117041;28;19912;-71
2021/06/13 02:55:48;;;;;;;;;;;;;;;14.26;100.00;100083.41;5116707;28;19919;-71
2021/06/13 03:01:20;;;;;;;;;;;;;;;14.38;100.00;100095.38;5117248;28;20003;-71
2021/06/13 03:04:04;;;;;;;;;;;;;;;14.40;100.00;100084.66;5098705;28;20366;-71
2021/06/13 03:06:30;;;;;;;;;;;;;;;14.33;100.00;100087.09;5116840;28;19922;-71
2021/06/13 03:08:56;;;;;;;;;;;;;;;14.34;100.00;100080.84;5116251;28;19915;-71
2021/06/13 03:11:22;;;;;;;;;;;;;;;14.48;100.00;100086.50;5116894;28;19920;-70
2021/06/13 03:13:48;;;;;;;;;;;;;;;14.39;100.00;100083.84;5116862;28;19957;-71
2021/06/13 03:16:15;;;;;;;;;;;;;;;14.49;100.00;100082.91;5116476;28;19912;-70
2021/06/13 03:18:41;;;;;;;;;;;;;;;14.56;100.00;100086.63;5116615;28;19922;-70
2021/06/13 03:21:07;;;;;;;;;;;;;;;14.50;100.00;100079.28;5116764;28;20041;-70
2021/06/13 03:23:33;;;;;;;;;;;;;;;14.56;100.00;100074.25;5116459;28;19988;-70
2021/06/13 03:26:02;;;;;;;;;;;;;;;14.59;100.00;100076.59;5116311;28;19911;-70
2021/06/13 03:28:29;;;;;;;;;;;;;;;14.74;100.00;100086.53;5116300;28;19920;-70
2021/06/13 03:30:55;;;;;;;;;;;;;;;14.87;100.00;100086.94;5115498;28;20386;-70
2021/06/13 03:33:21;;;;;;;;;;;;;;;15.02;100.00;100085.38;5115335;28;19912;-71
2021/06/13 03:38:31;;;;;;;;;;;;;;;15.15;100.00;100074.34;5116175;28;19922;-71
2021/06/13 03:40:57;;;;;;;;;;;;;;;15.20;100.00;100076.53;5115527;28;19915;-70
2021/06/13 03:43:23;;;;;;;;;;;;;;;15.35;100.00;100075.75;5100031;28;19951;-70
2021/06/13 03:45:49;;;;;;;;;;;;;;;15.53;100.00;100074.81;5104541;28;19951;-70
2021/06/13 03:48:16;;;;;;;;;;;;;;;15.57;100.00;100078.78;5099959;28;20344;-70
2021/06/13 03:50:42;;;;;;;;;;;;;;;15.60;100.00;100067.88;5107762;28;20381;-70
2021/06/13 03:56:34;;;;;;;;;;;;;;;15.89;100.00;100069.25;5093301;28;19972;-70
2021/06/13 03:59:00;;;;;;;;;;;;;;;15.98;100.00;100084.13;5096182;28;20394;-70
2021/06/13 04:01:26;;;;;;;;;;;;;;;16.17;100.00;100072.41;5107177;28;19918;-70
2021/06/13 04:03:55;;;;;;;;;;;;;;;16.22;100.00;100078.00;5083450;28;19969;-69
2021/06/13 04:06:21;;;;;;;;;;;;;;;16.36;100.00;100068.56;5097816;28;19919;-70
2021/06/13 04:08:47;;;;;;;;;;;;;;;16.46;100.00;100070.03;5097090;28;20280;-70
2021/06/13 04:11:13;;;;;;;;;;;;;;;16.48;100.00;100072.53;5102209;28;20044;-70
2021/06/13 04:13:40;;;;;;;;;;;;;;;16.66;100.00;100064.38;5102938;28;19916;-70
2021/06/13 04:16:09;;;;;;;;;;;;;;;16.77;100.00;100069.31;5100697;28;20054;-70
2021/06/13 04:18:35;;;;;;;;;;;;;;;16.95;100.00;100066.47;5097814;28;19915;-70
2021/06/13 04:21:02;;;;;;;;;;;;;;;17.04;100.00;100065.41;5101577;28;19920;-70
2021/06/13 04:26:16;;;;;;;;;;;;;;;17.41;100.00;100070.03;5101926;28;19927;-70
2021/06/13 04:28:42;;;;;;;;;;;;;;;17.42;100.00;100073.50;5103053;28;19932;-70
2021/06/13 04:31:12;;;;;;;;;;;;;;;17.45;100.00;100070.50;5104124;28;20025;-70
2021/06/13 04:33:39;;;;;;;;;;;;;;;17.69;100.00;100067.69;5096296;28;19912;-74
2021/06/13 04:36:04;;;;;;;;;;;;;;;17.88;100.00;100068.25;5090185;28;19923;-70
2021/06/13 04:38:30;;;;;;;;;;;;;;;18.03;100.00;100073.59;5111467;28;19920;-70
2021/06/13 04:41:34;;;;;;;;;;;;;;;17.92;100.00;100072.19;5109897;28;19919;-69
2021/06/13 04:44:00;;;;;;;;;;;;;;;17.99;100.00;100075.78;5110446;28;19926;-70
2021/06/13 04:46:28;;;;;;;;;;;;;;;18.19;100.00;100073.47;5110929;28;19912;-70
2021/06/13 04:48:53;;;;;;;;;;;;;;;18.46;100.00;100073.84;5110894;28;20442;-70
2021/06/13 04:51:19;;;;;;;;;;;;;;;18.66;100.00;100074.97;5109625;28;19916;-70
2021/06/13 04:53:48;;;;;;;;;;;;;;;18.71;100.00;100077.09;5111499;28;19995;-71
2021/06/13 04:56:33;;;;;;;;;;;;;;;18.78;100.00;100083.34;5114495;28;19916;-71
2021/06/13 04:58:58;;;;;;;;;;;;;;;18.15;100.00;100070.31;5114579;28;19915;-71
2021/06/13 05:01:24;;;;;;;;;;;;;;;18.23;100.00;100069.44;5114361;28;20434;-72
2021/06/13 05:03:49;;;;;;;;;;;;;;;18.38;100.00;100064.16;5114523;28;20013;-72
2021/06/13 05:06:15;;;;;;;;;;;;;;;18.32;100.00;100049.78;5114563;28;20302;-72
2021/06/13 05:08:41;;;;;;;;;;;;;;;18.49;100.00;100058.38;5114076;28;19919;-71
2021/06/13 05:11:07;;;;;;;;;;;;;;;18.40;100.00;100065.63;5113591;28;19919;-72
2021/06/13 05:13:32;;;;;;;;;;;;;;;18.79;100.00;100066.41;5114674;28;20010;-72
2021/06/13 05:15:57;;;;;;;;;;;;;;;18.56;100.00;100059.34;5114500;28;20386;-72
2021/06/13 05:18:23;;;;;;;;;;;;;;;18.61;100.00;100058.78;5114271;28;19918;-72
2021/06/13 05:20:53;;;;;;;;;;;;;;;18.64;100.00;100061.88;5114192;28;20383;-71
2021/06/13 05:23:18;;;;;;;;;;;;;;;18.42;100.00;100065.44;5114141;28;19911;-72
2021/06/13 05:26:02;;;;;;;;;;;;;;;18.84;100.00;100062.19;5113738;28;19968;-72
2021/06/13 05:28:28;;;;;;;;;;;;;;;19.06;100.00;100060.41;5113901;28;19963;-72
2021/06/13 05:30:55;;;;;;;;;;;;;;;18.86;100.00;100056.69;5114175;28;20335;-72
2021/06/13 05:33:20;;;;;;;;;;;;;;;18.95;100.00;100058.25;5113975;28;19922;-72
2021/06/13 05:35:47;;;;;;;;;;;;;;;19.06;100.00;100059.59;5113869;28;19998;-72
2021/06/13 05:38:13;;;;;;;;;;;;;;;19.41;100.00;100068.59;5113992;28;19915;-72
2021/06/13 05:40:38;;;;;;;;;;;;;;;19.35;100.00;100069.34;5113799;28;19920;-71
2021/06/13 05:43:06;;;;;;;;;;;;;;;19.57;100.00;100057.75;5113765;28;19954;-72
2021/06/13 05:45:31;;;;;;;;;;;;;;;19.20;100.00;100063.22;5095528;28;19969;-70
2021/06/13 05:48:15;;;;;;;;;;;;;;;19.14;100.00;100072.78;5113772;28;19912;-69
2021/06/13 05:50:40;;;;;;;;;;;;;;;19.44;100.00;100070.03;5113906;28;19934;-69
2021/06/13 05:53:07;;;;;;;;;;;;;;;19.44;100.00;100068.22;5113498;28;20378;-69
2021/06/13 05:55:32;;;;;;;;;;;;;;;19.52;100.00;100064.63;5113948;28;19961;-69
2021/06/13 05:57:58;;;;;;;;;;;;;;;19.96;100.00;100063.63;5113948;28;19911;-69
2021/06/13 06:00:25;;;;;;;;;;;;;;;20.12;100.00;100067.88;5113508;28;20370;-69
2021/06/13 06:02:50;;;;;;;;;;;;;;;20.40;100.00;100073.19;5113510;28;19916;-70
2021/06/13 06:05:17;;;;;;;;;;;;;;;20.75;100.00;100066.91;5113353;28;19919;-70
2021/06/13 06:07:42;;;;;;;;;;;;;;;21.16;100.00;100065.22;5113502;28;19911;-70
2021/06/13 06:10:08;;;;;;;;;;;;;;;21.30;100.00;100053.59;5113746;28;19918;-70
2021/06/13 06:12:34;;;;;;;;;;;;;;;21.47;100.00;100054.06;5113343;28;19911;-70
2021/06/13 06:15:00;;;;;;;;;;;;;;;21.80;100.00;100047.94;5113466;28;19915;-70
2021/06/13 06:17:25;;;;;;;;;;;;;;;21.72;100.00;100048.97;5113333;28;20374;-69
2021/06/13 06:19:51;;;;;;;;;;;;;;;22.00;100.00;100051.44;5113287;28;19912;-70
2021/06/13 06:22:16;;;;;;;;;;;;;;;21.99;100.00;100041.81;5112925;28;20298;-70
2021/06/13 06:24:41;;;;;;;;;;;;;;;21.93;100.00;100042.63;5112961;28;20002;-70
2021/06/13 06:27:07;;;;;;;;;;;;;;;21.82;100.00;100041.41;5113143;28;19943;-69
2021/06/13 06:29:32;;;;;;;;;;;;;;;22.21;100.00;100033.59;5113285;28;20003;-70
2021/06/13 06:31:58;;;;;;;;;;;;;;;21.82;100.00;100032.56;5113175;28;19958;-70
2021/06/13 06:34:23;;;;;;;;;;;;;;;21.80;100.00;100032.78;5112975;28;19912;-70
2021/06/13 06:36:49;;;;;;;;;;;;;;;22.34;100.00;100038.94;5113089;28;19911;-69
2021/06/13 06:39:14;;;;;;;;;;;;;;;22.52;100.00;100036.44;5113002;28;19923;-70
2021/06/13 06:41:40;;;;;;;;;;;;;;;22.46;100.00;100033.78;5113133;28;19973;-69
2021/06/13 06:44:08;;;;;;;;;;;;;;;22.71;100.00;100033.91;5112967;28;20282;-70
2021/06/13 06:46:34;;;;;;;;;;;;;;;22.94;100.00;100028.09;5112420;28;19912;-70
2021/06/13 06:48:59;;;;;;;;;;;;;;;23.22;100.00;100025.94;5112558;28;19920;-69
2021/06/13 06:54:09;;;;;;;;;;;;;;;22.91;100.00;100028.50;5112858;28;19919;-70
2021/06/13 06:56:34;;;;;;;;;;;;;;;23.10;100.00;100016.94;5112282;28;19915;-70
2021/06/13 06:59:00;;;;;;;;;;;;;;;23.34;100.00;100026.88;5112505;28;20395;-70
2021/06/13 07:01:44;;;;;;;;;;;;;;;23.58;100.00;100013.75;5112330;28;19918;-70
2021/06/13 07:04:09;;;;;;;;;;;;;;;24.07;100.00;100016.72;5113186;28;19969;-70
2021/06/13 07:06:34;;;;;;;;;;;;;;;24.33;100.00;100013.75;5113094;28;19916;-70
2021/06/13 07:09:00;;;;;;;;;;;;;;;23.92;100.00;100001.78;5112949;28;19916;-69
2021/06/13 07:11:25;;;;;;;;;;;;;;;23.69;100.00;99998.88;5112821;28;19912;-70
2021/06/13 07:13:50;;;;;;;;;;;;;;;23.86;100.00;99994.66;5112492;28;19912;-70
2021/06/13 07:16:16;;;;;;;;;;;;;;;23.73;100.00;99992.91;5112647;28;19920;-70
2021/06/13 07:19:00;;;;;;;;;;;;;;;23.87;100.00;99992.78;5113235;28;19918;-70
2021/06/13 07:21:25;;;;;;;;;;;;;;;23.97;100.00;99995.78;5112452;28;19919;-71
2021/06/13 07:23:51;;;;;;;;;;;;;;;23.60;100.00;99987.63;5112809;28;19912;-71
2021/06/13 07:26:16;;;;;;;;;;;;;;;24.10;100.00;99993.00;5112522;28;19934;-71
2021/06/13 07:28:41;;;;;;;;;;;;;;;24.47;100.00;99990.38;5112988;28;20425;-70
2021/06/13 07:31:06;;;;;;;;;;;;;;;24.35;100.00;99976.06;5112685;28;19922;-71
2021/06/13 07:33:32;;;;;;;;;;;;;;;23.98;100.00;99925.16;5113941;28;19955;-71
2021/06/13 07:35:57;;;;;;;;;;;;;;;24.34;100.00;99982.47;5115695;28;20382;-71
2021/06/13 07:38:23;;;;;;;;;;;;;;;24.28;100.00;99982.28;5116210;28;19915;-73
2021/06/13 07:40:49;;;;;;;;;;;;;;;24.70;100.00;99979.81;5115867;28;19922;-71
2021/06/13 07:43:33;;;;;;;;;;;;;;;25.14;100.00;99975.13;5116167;28;19912;-71
2021/06/13 07:45:58;;;;;;;;;;;;;;;25.49;100.00;99971.72;5115944;28;19912;-71
2021/06/13 07:48:23;;;;;;;;;;;;;;;25.14;100.00;99963.56;5116064;28;19911;-71
2021/06/13 07:50:49;;;;;;;;;;;;;;;25.39;100.00;99971.44;5116068;28;20000;-70
2021/06/13 07:53:14;;;;;;;;;;;;;;;25.85;100.00;99969.88;5097707;28;20363;-70
2021/06/13 07:55:40;;;;;;;;;;;;;;;25.59;100.00;99969.28;5115722;28;19915;-70
2021/06/13 07:58:05;;;;;;;;;;;;;;;25.48;100.00;99970.09;5116412;28;19915;-70
2021/06/13 08:00:31;;;;;;;;;;;;;;;25.77;100.00;99967.53;5115605;28;19912;-70
2021/06/13 08:02:57;;;;;;;;;;;;;;;26.03;100.00;99961.72;5112394;28;19915;-70
2021/06/13 08:05:42;;;;;;;;;;;;;;;25.81;100.00;99953.44;5115737;28;20474;-70
2021/06/13 08:08:09;;;;;;;;;;;;;;;25.73;100.00;99944.91;5115670;28;19912;-70
2021/06/13 08:10:35;;;;;;;;;;;;;;;25.17;100.00;99955.88;5115829;28;19969;-70
2021/06/13 08:13:00;;;;;;;;;;;;;;;25.71;100.00;99955.03;5116080;28;19933;-70
2021/06/13 08:15:26;;;;;;;;;;;;;;;25.98;100.00;99956.25;5100570;28;20349;-70
2021/06/13 08:17:51;;;;;;;;;;;;;;;25.77;100.00;99952.25;5097133;28;20349;-70
2021/06/13 08:20:17;;;;;;;;;;;;;;;26.21;100.00;99950.03;5099663;28;19972;-70
2021/06/13 08:22:43;;;;;;;;;;;;;;;26.21;100.00;99949.22;5115352;28;19911;-71
2021/06/13 08:25:09;;;;;;;;;;;;;;;26.53;100.00;99945.09;5115345;28;19912;-69
2021/06/13 08:27:35;;;;;;;;;;;;;;;26.60;100.00;99943.09;5115265;28;20053;-69
2021/06/13 08:30:19;;;;;;;;;;;;;;;26.92;100.00;99939.91;5115183;28;19973;-70
2021/06/13 08:32:44;;;;;;;;;;;;;;;26.94;100.00;99943.19;5113759;28;19960;-69
2021/06/13 08:35:11;;;;;;;;;;;;;;;27.17;100.00;99941.44;5114907;28;19923;-67
2021/06/13 08:37:36;;;;;;;;;;;;;;;26.88;100.00;99932.59;5114911;28;19959;-68
2021/06/13 08:40:03;;;;;;;;;;;;;;;26.30;100.00;99929.81;5115532;28;19918;-69
2021/06/13 08:42:29;;;;;;;;;;;;;;;26.70;100.00;99922.84;5114695;28;19919;-70
2021/06/13 08:44:54;;;;;;;;;;;;;;;26.77;100.00;99920.84;5113795;28;19915;-69
2021/06/13 08:47:22;;;;;;;;;;;;;;;26.84;100.00;99913.44;5114920;28;20019;-70
2021/06/13 08:49:47;;;;;;;;;;;;;;;26.72;100.00;99904.59;5114870;28;20343;-70
2021/06/13 08:52:13;;;;;;;;;;;;;;;26.57;100.00;99907.81;5114293;28;19915;-70
2021/06/13 08:54:39;;;;;;;;;;;;;;;26.73;100.00;99911.59;5114153;28;19938;-70
2021/06/13 08:59:49;;;;;;;;;;;;;;;27.37;100.00;99901.47;5115056;28;20294;-69
2021/06/13 09:02:15;;;;;;;;;;;;;;;27.80;100.00;99899.97;5114564;28;19915;-67
2021/06/13 09:04:40;;;;;;;;;;;;;;;28.00;79.52;99899.44;5114724;28;19916;-67
2021/06/13 09:10:06;;;;;;;;;;;;;;;28.29;74.23;99897.38;5112177;28;19918;-68
2021/06/13 09:12:37;;;;;;;;;;;;;;;28.11;62.89;99895.00;5111994;28;19999;-67
2021/06/13 09:15:04;;;;;;;;;;;;;;;27.91;62.89;99882.91;5112108;28;19918;-67
2021/06/13 09:20:19;;;;;;;;;;;;;;;27.84;67.92;99882.25;5111905;28;19921;-67
2021/06/13 09:23:06;;;;;;;;;;;;;;;27.20;64.25;99874.56;5111819;28;19918;-68
2021/06/13 09:25:31;;;;;;;;;;;;;;;27.17;65.60;99872.38;5114099;28;19919;-68
2021/06/13 09:28:13;;;;;;;;;;;;;;;27.09;66.23;99862.78;5114121;28;19923;-67
2021/06/13 09:30:41;;;;;;;;;;;;;;;27.55;69.02;99863.53;5113699;28;19969;-67
2021/06/13 09:33:17;;;;;;;;;;;;;;;27.77;54.76;99860.06;5113374;28;20378;-67
2021/06/13 09:35:44;;;;;;;;;;;;;;;28.05;58.86;99864.50;5113638;28;19916;-67
2021/06/13 09:38:13;;;;;;;;;;;;;;;28.28;60.47;99858.00;5113771;28;20390;-67
2021/06/13 09:40:40;;;;;;;;;;;;;;;27.71;59.67;99863.75;5114172;28;20002;-67
2021/06/13 09:43:14;;;;;;;;;;;;;;;27.62;57.49;99854.47;5113792;28;19912;-68
2021/06/13 09:45:44;;;;;;;;;;;;;;;27.75;60.49;99846.03;5113145;28;20029;-67
2021/06/13 09:48:09;;;;;;;;;;;;;;;27.54;57.36;99836.88;5113962;28;19935;-68
2021/06/13 09:50:54;;;;;;;;;;;;;;;27.93;59.97;99836.88;5112955;28;19923;-68
2021/06/13 09:53:28;;;;;;;;;;;;;;;28.06;53.64;99841.06;5113037;28;19937;-69
2021/06/13 09:56:01;;;;;;;;;;;;;;;28.00;51.28;99834.81;5110535;28;20010;-68
2021/06/13 09:58:27;;;;;;;;;;;;;;;27.88;52.94;99832.25;5112591;28;19912;-68
2021/06/13 10:00:52;;;;;;;;;;;;;;;27.74;54.42;99823.69;5112719;28;20010;-67
2021/06/13 10:03:21;;;;;;;;;;;;;;;27.94;56.27;99819.63;5113135;28;19912;-68
2021/06/13 10:05:57;;;;;;;;;;;;;;;28.15;55.55;99828.81;5112615;28;19916;-67
2021/06/13 10:08:25;;;;;;;;;;;;;;;28.39;52.65;99805.91;5110260;28;19968;-67
2021/06/13 10:10:52;;;;;;;;;;;;;;;28.63;52.71;99809.13;5113326;28;20367;-68
2021/06/13 10:13:18;;;;;;;;;;;;;;;27.92;56.12;99809.13;5113342;28;19912;-68
2021/06/13 10:15:50;;;;;;;;;;;;;;;27.73;56.15;99802.41;5113307;28;20301;-68
2021/06/13 10:18:16;;;;;;;;;;;;;;;28.32;54.80;99791.81;5113377;28;19911;-68
2021/06/13 10:20:41;;;;;;;;;;;;;;;28.36;53.42;99787.53;5113269;28;19912;-68
2021/06/13 10:23:06;;;;;;;;;;;;;;;27.78;51.00;99779.09;5113140;28;19947;-69
2021/06/13 10:25:31;;;;;;;;;;;;;;;27.57;53.53;99781.72;5113188;28;20285;-69
2021/06/13 10:27:57;;;;;;;;;;;;;;;27.95;53.08;99772.81;5113270;28;19984;-68
2021/06/13 10:30:23;;;;;;;;;;;;;;;28.11;54.04;99792.63;5113344;28;20408;-68
2021/06/13 10:32:48;;;;;;;;;;;;;;;28.26;55.84;99795.50;5113378;28;19911;-68
2021/06/13 10:35:15;;;;;;;;;;;;;;;28.08;51.99;99801.22;5113048;28;19912;-69
2021/06/13 10:37:41;;;;;;;;;;;;;;;28.57;52.93;99799.34;5113056;28;20410;-68
2021/06/13 10:40:06;;;;;;;;;;;;;;;28.82;49.37;99804.16;5112783;28;19916;-68
2021/06/13 10:42:35;;;;;;;;;;;;;;;28.91;46.51;99796.41;5112855;28;19912;-68
2021/06/13 10:45:01;;;;;;;;;;;;;;;29.07;50.40;99786.56;5095293;28;19916;-68
2021/06/13 10:47:28;;;;;;;;;;;;;;;29.31;50.29;99804.00;5095146;28;19934;-68
2021/06/13 10:49:56;;;;;;;;;;;;;;;28.81;52.08;99801.72;5112792;28;19911;-69
2021/06/13 10:52:22;;;;;;;;;;;;;;;29.00;54.17;99810.25;5113002;28;20389;-68
2021/06/13 10:54:54;;;;;;;;;;;;;;;29.35;55.10;99818.59;5112927;28;20340;-68
2021/06/13 10:57:19;;;;;;;;;;;;;;;29.42;54.71;99824.56;5112435;28;20398;-68
2021/06/13 10:59:52;;;;;;;;;;;;;;;29.55;50.21;99834.09;5112972;28;19912;-68
2021/06/13 11:02:24;;;;;;;;;;;;;;;29.46;50.93;99848.34;5112937;28;19934;-67
2021/06/13 11:04:52;;;;;;;;;;;;;;;29.41;49.35;99841.84;5112819;28;20351;-68
2021/06/13 11:07:27;;;;;;;;;;;;;;;29.40;48.61;99842.13;5112836;28;19984;-68
2021/06/13 11:10:12;;;;;;;;;;;;;;;29.26;50.70;99841.75;5116800;28;19911;-68
2021/06/13 11:12:40;;;;;;;;;;;;;;;29.16;51.44;99842.50;5117055;28;19912;-68
2021/06/13 11:17:51;;;;;;;;;;;;;;;25.78;57.92;99869.84;5116754;28;19922;-72
2021/06/13 11:23:01;;;;;;;;;;;;;;;24.68;61.07;99874.72;5116421;28;19912;-72
2021/06/13 11:25:29;;;;;;;;;;;;;;;24.15;62.61;99879.88;5116522;28;20014;-73
2021/06/13 11:28:10;;;;;;;;;;;;;;;24.12;62.88;99881.16;5116684;28;19923;-73
2021/06/13 11:30:39;;;;;;;;;;;;;;;23.78;65.08;99874.53;5116117;28;20405;-70
2021/06/13 11:33:05;;;;;;;;;;;;;;;23.53;71.25;99890.59;5116436;28;19912;-70
2021/06/13 11:35:31;;;;;;;;;;;;;;;23.17;77.36;99889.41;5116253;28;19919;-70
2021/06/13 11:38:09;;;;;;;;;;;;;;;22.65;86.10;99886.03;5116157;28;19980;-70
2021/06/13 11:40:36;;;;;;;;;;;;;;;22.45;93.13;99879.97;5116123;28;20347;-71
2021/06/13 11:43:12;;;;;;;;;;;;;;;22.38;96.45;99883.47;5116171;28;19911;-70
2021/06/13 11:45:38;;;;;;;;;;;;;;;22.51;100.00;99879.09;5116032;28;19918;-70
2021/06/13 11:48:23;;;;;;;;;;;;;;;22.10;100.00;99877.59;5097841;28;19916;-71
2021/06/13 11:51:03;;;;;;;;;;;;;;;21.97;100.00;99869.63;5115687;28;19912;-70
2021/06/13 11:53:47;;;;;;;;;;;;;;;21.53;100.00;99863.13;5114925;28;19972;-70
2021/06/13 11:56:36;;;;;;;;;;;;;;;21.53;100.00;99874.66;5114824;28;19916;-69
2021/06/13 11:59:01;;;;;;;;;;;;;;;21.62;100.00;99873.38;5115386;28;19947;-69
2021/06/13 12:01:27;;;;;;;;;;;;;;;21.62;100.00;99877.91;5115256;28;20001;-69
2021/06/13 12:03:54;;;;;;;;;;;;;;;21.75;100.00;99872.56;5115138;28;19938;-69
2021/06/13 12:09:07;;;;;;;;;;;;;;;21.81;100.00;99869.06;5115817;28;19918;-69
2021/06/13 12:11:36;;;;;;;;;;;;;;;21.87;100.00;99865.56;5115667;28;20378;-70
2021/06/13 12:14:18;;;;;;;;;;;;;;;22.04;100.00;99876.59;5115360;28;19912;-70
2021/06/13 12:16:44;;;;;;;;;;;;;;;22.19;100.00;99865.69;5115935;28;19947;-69
2021/06/13 12:19:10;;;;;;;;;;;;;;;22.27;100.00;99867.28;5115342;28;19961;-69
2021/06/13 12:21:35;;;;;;;;;;;;;;;22.46;100.00;99870.91;5115616;28;19968;-70
2021/06/13 12:24:16;;;;;;;;;;;;;;;22.65;100.00;99875.34;5115393;28;20366;-70
2021/06/13 12:29:26;;;;;;;;;;;;;;;22.54;97.62;99863.47;5115376;28;19922;-70
2021/06/13 12:31:52;;;;;;;;;;;;;;;22.54;100.00;99882.16;5115400;28;19912;-69
2021/06/13 12:34:18;;;;;;;;;;;;;;;22.66;100.00;99870.81;5114603;28;19911;-70
2021/06/13 12:37:01;;;;;;;;;;;;;;;22.71;100.00;99869.13;5114829;28;19972;-67
2021/06/13 12:39:28;;;;;;;;;;;;;;;22.58;100.00;99869.22;5115696;28;19922;-70
2021/06/13 12:42:05;;;;;;;;;;;;;;;22.53;100.00;99861.03;5114909;28;19918;-70
2021/06/13 12:44:31;;;;;;;;;;;;;;;22.50;100.00;99864.94;5094577;28;19915;-70
2021/06/13 12:46:56;;;;;;;;;;;;;;;22.48;100.00;99859.00;5094584;28;19919;-70
2021/06/13 12:49:21;;;;;;;;;;;;;;;22.37;100.00;99852.47;5094398;28;19912;-69
2021/06/13 12:51:47;;;;;;;;;;;;;;;22.19;100.00;99841.66;5094663;28;20387;-69
2021/06/13 12:56:58;;;;;;;;;;;;;;;22.05;100.00;99824.88;5094741;28;19919;-73
2021/06/13 12:59:23;;;;;;;;;;;;;;;22.13;100.00;99831.81;5094938;28;19962;-70
2021/06/13 13:01:50;;;;;;;;;;;;;;;22.13;100.00;99834.47;5094271;28;19912;-70
2021/06/13 13:04:35;;;;;;;;;;;;;;;22.22;100.00;99830.56;5094067;28;19919;-71
2021/06/13 13:07:00;;;;;;;;;;;;;;;22.11;100.00;99826.69;5094080;28;20398;-70
2021/06/13 13:09:25;;;;;;;;;;;;;;;21.78;100.00;99821.47;5106572;28;19923;-70
2021/06/13 13:11:51;;;;;;;;;;;;;;;21.85;100.00;99835.59;5113846;28;19923;-69
2021/06/13 13:17:01;;;;;;;;;;;;;;;21.60;100.00;99846.13;5114386;28;19919;-69
2021/06/13 13:19:29;;;;;;;;;;;;;;;21.62;100.00;99856.56;5095108;28;19916;-69
2021/06/13 13:21:54;;;;;;;;;;;;;;;21.60;100.00;99870.13;5114065;28;20441;-70
2021/06/13 13:24:30;;;;;;;;;;;;;;;21.51;100.00;99860.69;5095883;28;20002;-70